Russell, Iowa
Current Conditions -  °F | °C
As of 9:35 PM on Sunday 21 Dec 2014 (Local Time) from KCNC Reporting Station
Overcast Overcast  
Wind Chill: 33°   Ceiling: 700
Heat Index: 41°   Visibility: 9mi
Dew Point: 39°   Wind: 16mph
Humidity: 93%   Direction: 170°S
Pressure: 29.79"   Gusts: NA
Location:  40.98°N, 93.2°W
Report Text: KCNC 220335Z AUTO 17014KT 9SM OVC007 05/04 A2979 RMK AO2
Loading
Personal Weather Stations






























Interactive Weather Map New forecast layout! Learn more

10-Day Weather Forecast

Advertisements
Track Severe Weather on mobile